Port Clements, Canada
Current Conditions -  °F | °C
As of 2:00 PM on Sunday 23 Nov 2014 (Local Time) from CZMT Reporting Station
Broken Clouds Broken Clouds  
Wind Chill: 46°   Ceiling: 21000
Heat Index: 48°   Visibility: 15mi
Dew Point: 43°   Wind: 5mph
Humidity: 82%   Direction: 180°S
Pressure: 29.91"   Gusts: NA
Location:  53.68°N, 132.17°W
Report Text: CZMT 232200Z 18004KT 160V230 15SM SCT015TCU BKN210 09/06 A2991 RMK TCU4CI1 SLP128
Loading
Personal Weather Stations






























Interactive Weather Map New forecast layout! Learn more

10-Day Weather Forecast

Advertisements
Track Severe Weather on mobile